createdAt,value
2018-06-22T00:00:55.651Z,98630.15
2018-06-22T00:03:24.811Z,98643.66
2018-06-22T00:05:54.030Z,98644.77
2018-06-22T00:08:23.118Z,98655.90
2018-06-22T00:10:52.218Z,98658.42
2018-06-22T00:13:21.307Z,98661.19
2018-06-22T00:15:50.396Z,98663.80
2018-06-22T00:18:19.546Z,98664.02
2018-06-22T00:20:48.674Z,98670.62
2018-06-22T00:23:17.797Z,98677.41
2018-06-22T00:25:46.938Z,98685.32
2018-06-22T00:28:16.038Z,98687.53
2018-06-22T00:30:45.130Z,98687.41
2018-06-22T00:33:14.330Z,98689.10
2018-06-22T00:35:43.411Z,98693.46
2018-06-22T00:38:12.538Z,98689.41
2018-06-22T00:40:41.661Z,98689.75
2018-06-22T00:43:11.142Z,98708.95
2018-06-22T00:45:40.312Z,98711.75
2018-06-22T00:48:09.441Z,98721.76
2018-06-22T00:50:38.555Z,98725.02
2018-06-22T00:54:19.446Z,98735.77
2018-06-22T00:56:48.544Z,98732.18
2018-06-22T00:59:17.657Z,98733.38
2018-06-22T01:01:46.799Z,98716.27
2018-06-22T01:04:15.883Z,98726.38
2018-06-22T01:06:44.988Z,98727.05
2018-06-22T01:09:14.196Z,98715.52
2018-06-22T01:11:43.384Z,98707.73
2018-06-22T01:14:12.480Z,98711.02
2018-06-22T01:16:41.613Z,98725.07
2018-06-22T01:19:11.565Z,98751.22
2018-06-22T01:21:40.748Z,98757.13
2018-06-22T01:24:09.883Z,98759.34
2018-06-22T01:26:39.001Z,98763.41
2018-06-22T01:29:13.503Z,98758.87
2018-06-22T01:31:42.602Z,98762.66
2018-06-22T01:34:11.696Z,98770.52
2018-06-22T01:36:40.805Z,98760.55
2018-06-22T01:39:09.993Z,98760.13
2018-06-22T01:41:39.088Z,98763.91
2018-06-22T01:44:08.196Z,98756.19
2018-06-22T01:46:37.270Z,98757.27
2018-06-22T01:49:06.524Z,98756.73
2018-06-22T01:51:35.633Z,98762.41
2018-06-22T01:54:04.796Z,98759.97
2018-06-22T01:56:33.882Z,98755.69
2018-06-22T01:59:02.990Z,98753.00
2018-06-22T02:01:32.149Z,98766.16
2018-06-22T02:04:01.233Z,98774.77
2018-06-22T02:06:30.395Z,98773.42
2018-06-22T02:08:59.485Z,98766.44
2018-06-22T02:11:28.586Z,98761.10
2018-06-22T02:13:57.705Z,98764.85
2018-06-22T02:16:26.799Z,98772.38
2018-06-22T02:18:55.897Z,98775.61
2018-06-22T02:21:25.024Z,98780.72
2018-06-22T02:23:54.160Z,98787.44
2018-06-22T02:26:23.239Z,98790.66
2018-06-22T02:28:52.363Z,98787.69
2018-06-22T02:31:21.477Z,98793.33
2018-06-22T02:33:50.653Z,98803.79
2018-06-22T02:36:19.783Z,98808.36
2018-06-22T02:38:48.902Z,98813.75
2018-06-22T02:41:18.025Z,98815.88
2018-06-22T02:43:47.133Z,98823.15
2018-06-22T02:46:16.219Z,98820.99
2018-06-22T02:48:45.361Z,98819.37
2018-06-22T02:51:14.770Z,98818.84
2018-06-22T02:53:45.453Z,98827.43
2018-06-22T02:56:14.561Z,98832.27
2018-06-22T02:58:43.697Z,98826.90
2018-06-22T03:01:12.782Z,98820.44
2018-06-22T03:03:41.894Z,98828.49
2018-06-22T03:06:11.016Z,98841.92
2018-06-22T03:08:40.157Z,98841.10
2018-06-22T03:11:09.337Z,98837.11
2018-06-22T03:13:38.458Z,98849.19
2018-06-22T03:16:08.974Z,98854.28
2018-06-22T03:18:38.071Z,98864.48
2018-06-22T03:21:07.361Z,98852.41
2018-06-22T03:23:36.467Z,98860.17
2018-06-22T03:26:05.757Z,98859.65
2018-06-22T03:28:34.952Z,98870.39
2018-06-22T03:31:04.060Z,98872.26
2018-06-22T03:33:33.280Z,98880.06
2018-06-22T03:36:02.413Z,98886.77
2018-06-22T03:38:31.521Z,98887.02
2018-06-22T03:41:01.478Z,98887.83
2018-06-22T03:43:30.579Z,98889.17
2018-06-22T03:45:59.703Z,98888.89
2018-06-22T03:48:28.783Z,98886.49
2018-06-22T03:50:57.909Z,98879.78
2018-06-22T03:53:27.006Z,98884.09
2018-06-22T03:55:56.138Z,98882.75
2018-06-22T03:58:25.279Z,98888.13
2018-06-22T04:00:54.375Z,98888.65
2018-06-22T04:03:23.477Z,98895.89
2018-06-22T04:05:52.589Z,98894.27
2018-06-22T04:08:21.665Z,98892.92
2018-06-22T04:10:50.825Z,98884.88
2018-06-22T04:13:19.960Z,98886.78
2018-06-22T04:15:49.057Z,98883.00
2018-06-22T04:18:18.149Z,98887.31
2018-06-22T04:20:47.260Z,98894.55
2018-06-22T04:23:16.350Z,98892.68
2018-06-22T04:25:45.473Z,98893.77
2018-06-22T04:28:14.584Z,98887.06
2018-06-22T04:30:43.705Z,98877.66
2018-06-22T04:33:12.809Z,98886.78
2018-06-22T04:35:41.921Z,98882.47
2018-06-22T04:38:11.215Z,98880.06
2018-06-22T04:40:40.320Z,98883.56
2018-06-22T04:43:09.439Z,98884.38
2018-06-22T04:45:38.553Z,98880.87
2018-06-22T04:48:07.717Z,98879.81
2018-06-22T04:50:36.850Z,98885.19
2018-06-22T04:53:06.103Z,98887.87
2018-06-22T04:55:35.214Z,98876.84
2018-06-22T04:58:04.634Z,98883.84
2018-06-22T05:00:33.795Z,98877.66
2018-06-22T05:03:02.913Z,98887.06
2018-06-22T05:05:32.041Z,98878.75
2018-06-22T05:08:01.169Z,98868.25
2018-06-22T05:10:30.310Z,98873.37
2018-06-22T05:12:59.510Z,98871.75
2018-06-22T05:15:28.650Z,98871.75
2018-06-22T05:17:57.790Z,98878.20
2018-06-22T05:20:27.813Z,98878.45
2018-06-22T05:22:57.018Z,98878.20
2018-06-22T05:25:26.178Z,98894.33
2018-06-22T05:27:55.330Z,98890.02
2018-06-22T05:30:24.591Z,98887.08
2018-06-22T05:32:53.685Z,98890.03
2018-06-22T05:35:22.900Z,98887.38
2018-06-22T05:37:52.026Z,98890.30
2018-06-22T05:40:21.230Z,98885.74
2018-06-22T05:42:50.378Z,98888.70
2018-06-22T05:45:19.929Z,98890.84
2018-06-22T05:47:49.195Z,98886.52
2018-06-22T05:50:18.373Z,98889.98
2018-06-22T05:52:47.528Z,98888.87
2018-06-22T05:55:16.766Z,98886.96
2018-06-22T05:57:45.907Z,98889.66
2018-06-22T06:00:15.084Z,98887.77
2018-06-22T06:02:44.261Z,98888.29
2018-06-22T06:05:13.410Z,98890.45
2018-06-22T06:07:42.568Z,98892.30
2018-06-22T06:10:11.729Z,98899.30
2018-06-22T06:12:40.870Z,98915.69
2018-06-22T06:15:09.992Z,98912.16
2018-06-22T06:17:39.113Z,98906.50
2018-06-22T06:20:09.494Z,98908.37
2018-06-22T06:22:38.658Z,98919.93
2018-06-22T06:25:07.988Z,98916.44
2018-06-22T06:27:37.789Z,98909.16
2018-06-22T06:30:07.266Z,98912.38
2018-06-22T06:32:36.422Z,98919.61
2018-06-22T06:35:05.678Z,98913.06
2018-06-22T06:37:34.793Z,98903.56
2018-06-22T06:40:03.979Z,98905.67
2018-06-22T06:42:33.102Z,98922.31
2018-06-22T06:45:02.202Z,98918.25
2018-06-22T06:47:31.331Z,98906.06
2018-06-22T06:50:00.453Z,98902.71
2018-06-22T06:52:29.590Z,98910.48
2018-06-22T06:54:58.774Z,98904.57
2018-06-22T06:57:28.251Z,98912.98
2018-06-22T06:59:57.352Z,98912.14
2018-06-22T07:02:26.512Z,98922.98
2018-06-22T07:04:55.681Z,98923.30
2018-06-22T07:07:24.784Z,98922.19
2018-06-22T07:09:53.882Z,98925.30
2018-06-22T07:12:22.966Z,98923.11
2018-06-22T07:14:52.055Z,98928.97
2018-06-22T07:17:21.114Z,98925.96
2018-06-22T07:19:50.241Z,98920.46
2018-06-22T07:22:19.374Z,98911.45
2018-06-22T07:24:48.505Z,98924.75
2018-06-22T07:27:17.654Z,98932.13
2018-06-22T07:29:46.751Z,98926.16
2018-06-22T07:32:15.858Z,98908.53
2018-06-22T07:34:44.967Z,98897.27
2018-06-22T07:37:14.060Z,98885.23
2018-06-22T07:39:43.138Z,98886.63
2018-06-22T07:42:12.283Z,98889.05
2018-06-22T07:44:41.363Z,98893.28
2018-06-22T07:47:11.398Z,98898.03
2018-06-22T07:49:40.556Z,98899.88
2018-06-22T07:52:09.639Z,98900.95
2018-06-22T07:54:38.709Z,98893.57
2018-06-22T07:57:08.089Z,98894.97
2018-06-22T07:59:37.186Z,98893.56
2018-06-22T08:02:06.348Z,98887.72
2018-06-22T08:04:35.490Z,98897.48
2018-06-22T08:07:04.598Z,98894.61
2018-06-22T08:09:33.737Z,98886.70
2018-06-22T08:12:02.928Z,98890.45
2018-06-22T08:14:32.032Z,98884.08
2018-06-22T08:17:01.150Z,98882.22
2018-06-22T08:19:30.681Z,98891.69
2018-06-22T08:21:59.789Z,98891.81
2018-06-22T08:24:28.910Z,98891.51
2018-06-22T08:26:58.038Z,98898.58
2018-06-22T08:29:27.133Z,98898.73
2018-06-22T08:31:56.220Z,98888.82
2018-06-22T08:34:25.409Z,98882.22
2018-06-22T08:36:55.305Z,98884.92
2018-06-22T08:39:24.392Z,98886.13
2018-06-22T08:41:53.627Z,98886.59
2018-06-22T08:44:22.689Z,98891.51
2018-06-22T08:46:51.849Z,98910.47
2018-06-22T08:49:20.961Z,98919.56
2018-06-22T08:51:50.055Z,98919.03
2018-06-22T08:54:19.165Z,98930.84
2018-06-22T08:56:48.266Z,98940.30
2018-06-22T08:59:17.349Z,98930.84
2018-06-22T09:01:46.515Z,98943.52
2018-06-22T09:04:15.618Z,98953.44
2018-06-22T09:06:44.823Z,98957.48
2018-06-22T09:09:13.913Z,98953.34
2018-06-22T09:11:43.086Z,98951.35
2018-06-22T09:14:12.190Z,98938.95
2018-06-22T09:16:41.297Z,98940.70
2018-06-22T09:19:10.727Z,98944.90
2018-06-22T09:21:40.420Z,98931.61
2018-06-22T09:24:09.503Z,98938.15
2018-06-22T09:26:38.653Z,98930.12
2018-06-22T09:29:07.911Z,98929.45
2018-06-22T09:31:37.075Z,98936.39
2018-06-22T09:34:06.196Z,98927.51
2018-06-22T09:36:35.258Z,98929.28
2018-06-22T09:39:06.897Z,98943.83
2018-06-22T09:41:36.051Z,98935.06
2018-06-22T09:44:05.325Z,98931.98
2018-06-22T09:46:34.434Z,98944.91
2018-06-22T09:49:03.780Z,98937.16
2018-06-22T09:51:32.877Z,98934.77
2018-06-22T09:54:01.974Z,98942.41
2018-06-22T09:56:31.134Z,98935.17
2018-06-22T09:59:00.253Z,98943.95
2018-06-22T10:01:29.375Z,98929.86
2018-06-22T10:03:58.514Z,98931.87
2018-06-22T10:06:27.700Z,98938.36
2018-06-22T10:08:56.842Z,98935.90
2018-06-22T10:11:26.007Z,98944.95
2018-06-22T10:13:55.114Z,98930.53
2018-06-22T10:16:24.237Z,98942.37
2018-06-22T10:18:53.361Z,98942.27
2018-06-22T10:21:22.545Z,98931.64
2018-06-22T10:23:51.660Z,98941.63
2018-06-22T10:26:20.872Z,98932.22
2018-06-22T10:28:50.106Z,98953.61
2018-06-22T10:31:19.221Z,98943.25
2018-06-22T10:33:48.341Z,98944.13
2018-06-22T10:36:17.436Z,98933.95
2018-06-22T10:38:46.566Z,98930.29
2018-06-22T10:41:15.848Z,98930.01
2018-06-22T10:43:44.972Z,98931.45
2018-06-22T10:46:14.202Z,98926.89
2018-06-22T10:48:43.493Z,98920.71
2018-06-22T10:51:12.750Z,98916.08
2018-06-22T10:53:41.912Z,98913.21
2018-06-22T10:56:11.174Z,98919.89
2018-06-22T10:58:40.409Z,98921.80
2018-06-22T11:01:09.517Z,98924.95
2018-06-22T11:03:38.661Z,98917.90
2018-06-22T11:06:07.771Z,98928.77
2018-06-22T11:08:36.904Z,98926.05
2018-06-22T11:11:06.377Z,98932.77
2018-06-22T11:13:35.594Z,98933.13
2018-06-22T11:16:04.733Z,98930.29
2018-06-22T11:18:33.851Z,98933.87
2018-06-22T11:21:02.949Z,98933.33
2018-06-22T11:23:32.049Z,98934.06
2018-06-22T11:26:01.249Z,98932.72
2018-06-22T11:28:30.355Z,98939.50
2018-06-22T11:30:59.433Z,98941.41
2018-06-22T11:33:28.672Z,98940.09
2018-06-22T11:35:57.749Z,98942.84
2018-06-22T11:38:26.898Z,98942.16
2018-06-22T11:40:56.053Z,98947.28
2018-06-22T11:43:25.242Z,98948.38
2018-06-22T11:45:54.362Z,98948.81
2018-06-22T11:48:23.481Z,98949.86
2018-06-22T11:50:52.581Z,98954.68
2018-06-22T11:53:21.697Z,98949.44
2018-06-22T11:55:50.832Z,98950.28
2018-06-22T11:58:19.964Z,98948.50
2018-06-22T12:00:49.061Z,98941.86
2018-06-22T12:03:18.179Z,98943.23
2018-06-22T12:05:47.298Z,98938.62
2018-06-22T12:08:16.416Z,98939.05
2018-06-22T12:10:45.540Z,98940.86
2018-06-22T12:13:14.717Z,98941.87
2018-06-22T12:15:43.823Z,98944.13
2018-06-22T12:18:12.988Z,98942.60
2018-06-22T12:20:42.070Z,98939.94
2018-06-22T12:23:11.422Z,98935.84
2018-06-22T12:25:40.568Z,98936.66
2018-06-22T12:28:09.702Z,98938.66
2018-06-22T12:30:38.881Z,98934.95
2018-06-22T12:33:08.202Z,98925.25
2018-06-22T12:35:37.448Z,98929.48
2018-06-22T12:38:06.668Z,98931.38
2018-06-22T12:40:36.116Z,98926.83
2018-06-22T12:43:05.584Z,98935.55
2018-06-22T12:45:34.777Z,98928.52
2018-06-22T12:48:04.012Z,98924.63
2018-06-22T12:50:34.319Z,98923.33
2018-06-22T12:53:03.486Z,98929.91
2018-06-22T12:55:32.756Z,98923.04
2018-06-22T12:58:01.942Z,98930.70
2018-06-22T13:00:31.049Z,98926.19
2018-06-22T13:03:00.276Z,98921.04
2018-06-22T13:05:29.397Z,98919.88
2018-06-22T13:07:58.569Z,98927.05
2018-06-22T13:10:27.735Z,98923.58
2018-06-22T13:12:56.862Z,98919.20
2018-06-22T13:15:25.974Z,98921.86
2018-06-22T13:17:55.094Z,98925.34
2018-06-22T13:20:25.785Z,98914.95
2018-06-22T13:22:54.880Z,98913.93
2018-06-22T13:25:24.113Z,98919.92
2018-06-22T13:27:53.240Z,98924.84
2018-06-22T13:30:22.488Z,98923.98
2018-06-22T13:32:51.597Z,98932.55
2018-06-22T13:35:20.715Z,98927.41
2018-06-22T13:37:49.830Z,98923.05
2018-06-22T13:40:18.996Z,98921.58
2018-06-22T13:42:48.188Z,98929.58
2018-06-22T13:45:17.329Z,98921.81
2018-06-22T13:47:46.617Z,98915.88
2018-06-22T13:50:15.782Z,98924.23
2018-06-22T13:52:44.816Z,98923.91
2018-06-22T13:55:14.037Z,98924.25
2018-06-22T13:57:43.173Z,98920.09
2018-06-22T14:00:12.336Z,98915.65
2018-06-22T14:02:41.505Z,98919.83
2018-06-22T14:05:16.820Z,98916.09
2018-06-22T14:07:45.980Z,98919.79
2018-06-22T14:10:15.338Z,98903.55
2018-06-22T14:12:44.455Z,98914.20
2018-06-22T14:15:13.704Z,98921.42
2018-06-22T14:17:42.794Z,98932.58
2018-06-22T14:20:11.933Z,98927.75
2018-06-22T14:22:41.109Z,98937.30
2018-06-22T14:25:10.217Z,98942.82
2018-06-22T14:27:39.352Z,98940.28
2018-06-22T14:30:08.569Z,98944.25
2018-06-22T14:32:37.829Z,98965.84
2018-06-22T14:35:07.140Z,98960.83
2018-06-22T14:37:36.265Z,98979.80
2018-06-22T14:40:06.390Z,99002.27
2018-06-22T14:42:35.572Z,98999.47
2018-06-22T14:45:04.800Z,99002.54
2018-06-22T14:47:33.959Z,99004.33
2018-06-22T14:50:03.141Z,99001.09
2018-06-22T14:52:32.251Z,99007.49
2018-06-22T14:55:06.783Z,99007.83
2018-06-22T14:57:41.052Z,99024.00
2018-06-22T15:00:15.413Z,99026.37
2018-06-22T15:02:49.757Z,99035.50
2018-06-22T15:05:24.043Z,99038.54
2018-06-22T15:07:56.133Z,99033.73
2018-06-22T15:10:25.441Z,99047.55
2018-06-22T15:12:54.553Z,99055.13
2018-06-22T15:15:23.778Z,99059.53
2018-06-22T15:17:53.952Z,99069.90
2018-06-22T15:20:24.331Z,99061.63
2018-06-22T15:22:53.549Z,99056.58
2018-06-22T15:25:22.661Z,99050.43
2018-06-22T15:27:52.573Z,99050.95
2018-06-22T15:30:21.680Z,99035.86
2018-06-22T15:32:50.813Z,99034.98
2018-06-22T15:35:25.099Z,99034.89
2018-06-22T15:37:59.427Z,99034.72
2018-06-22T15:40:33.726Z,99033.93
2018-06-22T15:43:08.212Z,99041.05
2018-06-22T15:45:42.684Z,99041.20
2018-06-22T15:48:17.034Z,99032.02
2018-06-22T15:50:51.177Z,99042.63
2018-06-22T15:53:25.512Z,99045.27
2018-06-22T15:55:58.837Z,99040.89
2018-06-22T15:58:28.025Z,99042.84
2018-06-22T16:00:57.192Z,99039.36
2018-06-22T16:03:31.631Z,99036.86
2018-06-22T16:06:00.810Z,99031.11
2018-06-22T16:08:29.984Z,99036.63
2018-06-22T16:10:59.133Z,99037.12
2018-06-22T16:13:28.332Z,99039.14
2018-06-22T16:16:02.616Z,99033.89
2018-06-22T16:18:43.258Z,99023.41
2018-06-22T16:21:17.621Z,99015.33
2018-06-22T16:23:51.916Z,99010.81
2018-06-22T16:26:26.229Z,99007.52
2018-06-22T16:28:55.291Z,98999.16
2018-06-22T16:31:24.384Z,98995.63
2018-06-22T16:33:57.351Z,99002.87
2018-06-22T16:36:27.757Z,99013.41
2018-06-22T16:38:57.269Z,99003.98
2018-06-22T16:41:26.461Z,99013.47
2018-06-22T16:43:55.541Z,99011.89
2018-06-22T16:46:24.687Z,99022.09
2018-06-22T16:48:53.770Z,99034.62
2018-06-22T16:51:22.906Z,99081.67
2018-06-22T16:53:52.034Z,99066.39
2018-06-22T16:56:21.180Z,99061.02
2018-06-22T16:58:50.345Z,99059.94
2018-06-22T17:01:19.461Z,99069.08
2018-06-22T17:03:48.593Z,99078.99
2018-06-22T17:06:17.696Z,99084.36
2018-06-22T17:08:52.077Z,99094.81
2018-06-22T17:11:26.366Z,99095.92
2018-06-22T17:14:00.773Z,99101.84
2018-06-22T17:16:35.230Z,99108.02
2018-06-22T17:19:04.445Z,99123.91
2018-06-22T17:21:33.513Z,99118.83
2018-06-22T17:24:02.615Z,99124.40
2018-06-22T17:26:31.762Z,99124.62
2018-06-22T17:29:00.892Z,99127.83
2018-06-22T17:31:30.003Z,99122.11
2018-06-22T17:33:59.142Z,99131.79
2018-06-22T17:36:28.251Z,99135.64
2018-06-22T17:38:57.349Z,99133.50
2018-06-22T17:41:26.521Z,99138.65
2018-06-22T17:43:55.595Z,99141.88
2018-06-22T17:46:24.765Z,99143.50
2018-06-22T17:48:53.905Z,99147.80
2018-06-22T17:51:23.149Z,99142.73
2018-06-22T17:53:52.242Z,99139.48
2018-06-22T17:56:26.593Z,99142.45
2018-06-22T17:59:00.990Z,99142.97
2018-06-22T18:01:35.257Z,99149.92
2018-06-22T18:04:09.674Z,99151.03
2018-06-22T18:06:44.086Z,99150.45
2018-06-22T18:09:18.424Z,99155.82
2018-06-22T18:11:52.982Z,99163.58
2018-06-22T18:14:22.126Z,99167.03
2018-06-22T18:16:51.253Z,99168.09
2018-06-22T18:19:20.362Z,99176.63
2018-06-22T18:21:49.545Z,99174.15
2018-06-22T18:24:18.706Z,99182.45
2018-06-22T18:26:47.857Z,99188.27
2018-06-22T18:29:17.010Z,99191.38
2018-06-22T18:31:46.137Z,99190.50
2018-06-22T18:34:15.264Z,99193.34
2018-06-22T18:36:44.432Z,99185.47
2018-06-22T18:39:13.730Z,99187.27
2018-06-22T18:41:42.846Z,99200.86
2018-06-22T18:44:16.898Z,99195.44
2018-06-22T18:46:46.590Z,99189.62
2018-06-22T18:49:15.658Z,99202.30
2018-06-22T18:51:44.783Z,99204.94
2018-06-22T18:54:19.166Z,99203.16
2018-06-22T18:56:53.691Z,99196.62
2018-06-22T18:59:28.070Z,99203.61
2018-06-22T19:02:02.322Z,99205.61
2018-06-22T19:04:31.585Z,99211.98
2018-06-22T19:07:00.765Z,99214.64
2018-06-22T19:09:29.851Z,99214.11
2018-06-22T19:11:58.982Z,99208.23
2018-06-22T19:14:28.157Z,99211.70
2018-06-22T19:16:57.255Z,99211.12
2018-06-22T19:19:26.389Z,99225.09
2018-06-22T19:21:55.496Z,99224.75
2018-06-22T19:24:24.618Z,99228.44
2018-06-22T19:26:53.737Z,99234.33
2018-06-22T19:29:22.858Z,99231.91
2018-06-22T19:31:52.037Z,99231.09
2018-06-22T19:34:26.358Z,99232.43
2018-06-22T19:36:55.502Z,99241.58
2018-06-22T19:39:24.597Z,99239.59
2018-06-22T19:41:53.733Z,99247.59
2018-06-22T19:44:28.029Z,99246.45
2018-06-22T19:47:02.457Z,99246.98
2018-06-22T19:49:36.823Z,99261.09
2018-06-22T19:52:11.159Z,99263.44
2018-06-22T19:54:40.256Z,99265.33
2018-06-22T19:57:09.489Z,99263.96
2018-06-22T19:59:38.649Z,99274.74
2018-06-22T20:02:07.790Z,99265.49
2018-06-22T20:04:36.956Z,99272.67
2018-06-22T20:07:06.418Z,99272.12
2018-06-22T20:09:35.612Z,99271.27
2018-06-22T20:12:04.718Z,99273.20
2018-06-22T20:14:33.910Z,99278.48
2018-06-22T20:17:03.041Z,99273.84
2018-06-22T20:19:32.177Z,99275.17
2018-06-22T20:22:01.317Z,99279.71
2018-06-22T20:24:35.675Z,99284.21
2018-06-22T20:27:04.929Z,99285.39
2018-06-22T20:29:34.057Z,99285.33
2018-06-22T20:32:07.328Z,99297.81
2018-06-22T20:34:41.509Z,99301.76
2018-06-22T20:37:16.700Z,99271.35
2018-06-22T20:39:50.908Z,99295.59
2018-06-22T20:42:25.281Z,99295.36
2018-06-22T20:44:59.714Z,99295.84
2018-06-22T20:47:34.017Z,99299.22
2018-06-22T20:50:08.471Z,99305.59
2018-06-22T20:52:37.600Z,99301.61
2018-06-22T20:55:06.949Z,99312.88
2018-06-22T20:57:36.054Z,99313.13
2018-06-22T21:00:05.442Z,99318.72
2018-06-22T21:02:34.608Z,99316.81
2018-06-22T21:05:03.765Z,99316.85
2018-06-22T21:07:32.957Z,99321.02
2018-06-22T21:10:02.105Z,99321.70
2018-06-22T21:12:40.417Z,99319.78
2018-06-22T21:15:00.626Z,99319.78
2018-06-22T21:17:29.788Z,99326.55
2018-06-22T21:19:58.927Z,99316.94
2018-06-22T21:22:28.038Z,99311.88
2018-06-22T21:24:57.205Z,99311.55
2018-06-22T21:27:31.555Z,99313.41
2018-06-22T21:30:05.953Z,99312.86
2018-06-22T21:32:40.417Z,99317.27
2018-06-22T21:35:14.814Z,99326.00
2018-06-22T21:37:49.129Z,99316.52
2018-06-22T21:40:18.302Z,99319.85
2018-06-22T21:42:47.842Z,99320.51
2018-06-22T21:45:17.013Z,99323.77
2018-06-22T21:47:46.237Z,99320.77
2018-06-22T21:50:15.425Z,99323.94
2018-06-22T21:52:44.551Z,99332.77
2018-06-22T21:55:13.690Z,99323.91
2018-06-22T21:57:42.910Z,99333.09
2018-06-22T22:00:14.245Z,99330.08
2018-06-22T22:02:43.353Z,99339.72
2018-06-22T22:05:12.514Z,99332.30
2018-06-22T22:07:41.739Z,99336.52
2018-06-22T22:10:10.980Z,99341.58
2018-06-22T22:12:40.061Z,99333.02
2018-06-22T22:15:09.320Z,99330.05
2018-06-22T22:17:38.420Z,99334.36
2018-06-22T22:20:07.596Z,99333.61
2018-06-22T22:22:36.908Z,99336.55
2018-06-22T22:25:06.329Z,99334.30
2018-06-22T22:27:35.464Z,99329.82
2018-06-22T22:30:05.202Z,99328.67
2018-06-22T22:32:34.479Z,99332.92
2018-06-22T22:35:03.740Z,99333.45
2018-06-22T22:37:32.973Z,99339.88
2018-06-22T22:40:02.085Z,99341.22
2018-06-22T22:42:31.229Z,99344.30
2018-06-22T22:45:00.449Z,99338.61
2018-06-22T22:47:29.716Z,99340.14
2018-06-22T22:49:58.852Z,99348.28
2018-06-22T22:52:28.041Z,99344.16
2018-06-22T22:54:58.041Z,99341.67
2018-06-22T22:57:27.162Z,99348.67
2018-06-22T22:59:56.350Z,99345.08
2018-06-22T23:02:25.501Z,99346.28
2018-06-22T23:04:54.717Z,99347.84
2018-06-22T23:07:24.005Z,99341.83
2018-06-22T23:09:53.246Z,99341.50
2018-06-22T23:12:22.442Z,99332.51
2018-06-22T23:14:51.660Z,99334.30
2018-06-22T23:17:20.819Z,99333.70
2018-06-22T23:19:49.989Z,99329.61
2018-06-22T23:22:24.688Z,99333.03
2018-06-22T23:24:54.247Z,99329.23
2018-06-22T23:27:23.365Z,99330.50
2018-06-22T23:29:52.523Z,99334.09
2018-06-22T23:32:21.639Z,99335.44
2018-06-22T23:34:50.768Z,99328.37
2018-06-22T23:37:19.917Z,99330.48
2018-06-22T23:39:49.045Z,99336.06
2018-06-22T23:42:18.225Z,99325.09
2018-06-22T23:44:47.368Z,99333.91
2018-06-22T23:47:16.513Z,99334.61
2018-06-22T23:49:45.739Z,99332.93
2018-06-22T23:52:14.903Z,99338.58
2018-06-22T23:54:44.034Z,99336.42
2018-06-22T23:57:13.224Z,99331.63
2018-06-22T23:59:42.384Z,99330.89
